sensor_id;sensor_type;location;lat;lon;timestamp;P1;durP1;ratioP1;P2;durP2;ratioP2
7440;SDS011;29616;51.950;8.572;2023-09-30T00:01:36;334.77;;;145.10;;
7440;SDS011;29616;51.950;8.572;2023-09-30T00:04:07;341.83;;;145.90;;
7440;SDS011;29616;51.950;8.572;2023-09-30T00:06:36;333.80;;;144.65;;
7440;SDS011;29616;51.950;8.572;2023-09-30T00:09:06;338.30;;;146.60;;
7440;SDS011;29616;51.950;8.572;2023-09-30T00:11:38;348.05;;;147.88;;
7440;SDS011;29616;51.950;8.572;2023-09-30T00:14:08;342.38;;;149.68;;
7440;SDS011;29616;51.950;8.572;2023-09-30T00:16:38;343.95;;;147.55;;
7440;SDS011;29616;51.950;8.572;2023-09-30T00:19:07;338.30;;;146.20;;
7440;SDS011;29616;51.950;8.572;2023-09-30T00:21:37;341.45;;;146.18;;
7440;SDS011;29616;51.950;8.572;2023-09-30T00:24:06;332.70;;;144.82;;
7440;SDS011;29616;51.950;8.572;2023-09-30T00:26:35;333.05;;;141.35;;
7440;SDS011;29616;51.950;8.572;2023-09-30T00:29:07;331.38;;;140.65;;
7440;SDS011;29616;51.950;8.572;2023-09-30T00:31:39;345.10;;;149.18;;
7440;SDS011;29616;51.950;8.572;2023-09-30T00:34:09;334.90;;;145.60;;
7440;SDS011;29616;51.950;8.572;2023-09-30T00:36:40;341.77;;;147.43;;
7440;SDS011;29616;51.950;8.572;2023-09-30T00:39:12;345.88;;;150.00;;
7440;SDS011;29616;51.950;8.572;2023-09-30T00:41:43;346.05;;;148.02;;
7440;SDS011;29616;51.950;8.572;2023-09-30T00:44:14;346.33;;;147.48;;
7440;SDS011;29616;51.950;8.572;2023-09-30T00:46:43;334.02;;;146.73;;
7440;SDS011;29616;51.950;8.572;2023-09-30T00:49:15;335.63;;;144.88;;
7440;SDS011;29616;51.950;8.572;2023-09-30T00:51:46;338.85;;;146.02;;
7440;SDS011;29616;51.950;8.572;2023-09-30T00:54:17;338.60;;;147.20;;
7440;SDS011;29616;51.950;8.572;2023-09-30T00:56:52;337.90;;;145.77;;
7440;SDS011;29616;51.950;8.572;2023-09-30T00:59:25;342.85;;;148.68;;
7440;SDS011;29616;51.950;8.572;2023-09-30T01:01:56;343.00;;;148.50;;
7440;SDS011;29616;51.950;8.572;2023-09-30T01:04:29;363.63;;;155.20;;
7440;SDS011;29616;51.950;8.572;2023-09-30T01:06:59;363.55;;;154.20;;
7440;SDS011;29616;51.950;8.572;2023-09-30T01:09:30;361.25;;;154.73;;
7440;SDS011;29616;51.950;8.572;2023-09-30T01:12:04;373.48;;;155.85;;
7440;SDS011;29616;51.950;8.572;2023-09-30T01:14:35;364.00;;;155.30;;
7440;SDS011;29616;51.950;8.572;2023-09-30T01:17:09;364.80;;;152.77;;
7440;SDS011;29616;51.950;8.572;2023-09-30T01:19:41;364.60;;;156.38;;
7440;SDS011;29616;51.950;8.572;2023-09-30T01:22:13;375.15;;;158.52;;
7440;SDS011;29616;51.950;8.572;2023-09-30T01:24:44;384.38;;;161.63;;
7440;SDS011;29616;51.950;8.572;2023-09-30T01:27:14;402.60;;;168.93;;
7440;SDS011;29616;51.950;8.572;2023-09-30T01:29:45;389.50;;;165.05;;
7440;SDS011;29616;51.950;8.572;2023-09-30T01:32:14;405.20;;;170.20;;
7440;SDS011;29616;51.950;8.572;2023-09-30T01:34:43;408.58;;;170.63;;
7440;SDS011;29616;51.950;8.572;2023-09-30T01:37:15;408.08;;;176.25;;
7440;SDS011;29616;51.950;8.572;2023-09-30T01:39:44;404.95;;;171.20;;
7440;SDS011;29616;51.950;8.572;2023-09-30T01:42:13;421.60;;;178.95;;
7440;SDS011;29616;51.950;8.572;2023-09-30T01:44:43;405.42;;;167.05;;
7440;SDS011;29616;51.950;8.572;2023-09-30T01:47:13;408.98;;;172.10;;
7440;SDS011;29616;51.950;8.572;2023-09-30T01:49:45;403.17;;;172.43;;
7440;SDS011;29616;51.950;8.572;2023-09-30T01:52:16;399.33;;;170.93;;
7440;SDS011;29616;51.950;8.572;2023-09-30T01:54:47;395.27;;;164.43;;
7440;SDS011;29616;51.950;8.572;2023-09-30T01:57:19;402.42;;;169.60;;
7440;SDS011;29616;51.950;8.572;2023-09-30T01:59:49;405.17;;;171.85;;
7440;SDS011;29616;51.950;8.572;2023-09-30T02:02:19;403.08;;;172.98;;
7440;SDS011;29616;51.950;8.572;2023-09-30T02:04:48;411.58;;;174.07;;
7440;SDS011;29616;51.950;8.572;2023-09-30T02:07:20;408.48;;;175.45;;
7440;SDS011;29616;51.950;8.572;2023-09-30T02:09:50;401.10;;;170.65;;
7440;SDS011;29616;51.950;8.572;2023-09-30T02:12:21;413.83;;;174.82;;
7440;SDS011;29616;51.950;8.572;2023-09-30T02:14:50;415.42;;;173.52;;
7440;SDS011;29616;51.950;8.572;2023-09-30T02:17:19;402.67;;;167.85;;
7440;SDS011;29616;51.950;8.572;2023-09-30T02:19:49;411.17;;;172.80;;
7440;SDS011;29616;51.950;8.572;2023-09-30T02:22:24;418.27;;;172.52;;
7440;SDS011;29616;51.950;8.572;2023-09-30T02:24:55;410.17;;;170.25;;
7440;SDS011;29616;51.950;8.572;2023-09-30T02:27:26;407.60;;;168.45;;
7440;SDS011;29616;51.950;8.572;2023-09-30T02:29:56;397.85;;;164.95;;
7440;SDS011;29616;51.950;8.572;2023-09-30T02:32:26;415.92;;;175.52;;
7440;SDS011;29616;51.950;8.572;2023-09-30T02:34:57;401.45;;;171.68;;
7440;SDS011;29616;51.950;8.572;2023-09-30T02:37:31;419.60;;;180.95;;
7440;SDS011;29616;51.950;8.572;2023-09-30T02:40:02;408.80;;;173.07;;
7440;SDS011;29616;51.950;8.572;2023-09-30T02:42:37;426.80;;;185.40;;
7440;SDS011;29616;51.950;8.572;2023-09-30T02:45:10;412.75;;;174.77;;
7440;SDS011;29616;51.950;8.572;2023-09-30T02:47:40;417.15;;;177.60;;
7440;SDS011;29616;51.950;8.572;2023-09-30T02:50:13;408.20;;;174.43;;
7440;SDS011;29616;51.950;8.572;2023-09-30T02:52:45;399.50;;;169.38;;
7440;SDS011;29616;51.950;8.572;2023-09-30T02:55:19;429.83;;;181.50;;
7440;SDS011;29616;51.950;8.572;2023-09-30T02:57:48;430.95;;;183.88;;
7440;SDS011;29616;51.950;8.572;2023-09-30T03:00:19;435.15;;;180.60;;
7440;SDS011;29616;51.950;8.572;2023-09-30T03:02:52;480.50;;;202.18;;
7440;SDS011;29616;51.950;8.572;2023-09-30T03:05:21;467.27;;;203.35;;
7440;SDS011;29616;51.950;8.572;2023-09-30T03:07:54;450.65;;;186.55;;
7440;SDS011;29616;51.950;8.572;2023-09-30T03:10:23;469.33;;;198.88;;
7440;SDS011;29616;51.950;8.572;2023-09-30T03:12:52;403.80;;;166.25;;
7440;SDS011;29616;51.950;8.572;2023-09-30T03:15:22;388.50;;;168.38;;
7440;SDS011;29616;51.950;8.572;2023-09-30T03:17:54;409.42;;;174.70;;
7440;SDS011;29616;51.950;8.572;2023-09-30T03:20:28;393.05;;;165.30;;
7440;SDS011;29616;51.950;8.572;2023-09-30T03:23:00;375.23;;;159.60;;
7440;SDS011;29616;51.950;8.572;2023-09-30T03:25:32;385.83;;;166.25;;
7440;SDS011;29616;51.950;8.572;2023-09-30T03:28:02;376.52;;;164.40;;
7440;SDS011;29616;51.950;8.572;2023-09-30T03:30:34;386.27;;;166.57;;
7440;SDS011;29616;51.950;8.572;2023-09-30T03:33:03;377.95;;;160.75;;
7440;SDS011;29616;51.950;8.572;2023-09-30T03:35:32;376.98;;;159.68;;
7440;SDS011;29616;51.950;8.572;2023-09-30T03:38:08;411.33;;;176.57;;
7440;SDS011;29616;51.950;8.572;2023-09-30T03:40:38;430.60;;;183.52;;
7440;SDS011;29616;51.950;8.572;2023-09-30T03:43:16;411.27;;;172.82;;
7440;SDS011;29616;51.950;8.572;2023-09-30T03:45:46;404.05;;;175.75;;
7440;SDS011;29616;51.950;8.572;2023-09-30T03:48:17;409.48;;;176.02;;
7440;SDS011;29616;51.950;8.572;2023-09-30T03:50:47;408.80;;;174.00;;
7440;SDS011;29616;51.950;8.572;2023-09-30T03:53:20;399.45;;;174.45;;
7440;SDS011;29616;51.950;8.572;2023-09-30T03:55:55;412.92;;;175.90;;
7440;SDS011;29616;51.950;8.572;2023-09-30T03:58:25;407.42;;;171.57;;
7440;SDS011;29616;51.950;8.572;2023-09-30T04:00:55;401.33;;;172.98;;
7440;SDS011;29616;51.950;8.572;2023-09-30T04:03:27;411.70;;;178.52;;
7440;SDS011;29616;51.950;8.572;2023-09-30T04:05:59;405.65;;;176.45;;
7440;SDS011;29616;51.950;8.572;2023-09-30T04:08:32;423.45;;;178.68;;
7440;SDS011;29616;51.950;8.572;2023-09-30T04:11:02;412.45;;;178.85;;
7440;SDS011;29616;51.950;8.572;2023-09-30T04:13:32;415.60;;;181.23;;
7440;SDS011;29616;51.950;8.572;2023-09-30T04:16:03;450.50;;;176.48;;
7440;SDS011;29616;51.950;8.572;2023-09-30T04:18:34;409.52;;;174.10;;
7440;SDS011;29616;51.950;8.572;2023-09-30T04:21:03;428.15;;;179.93;;
7440;SDS011;29616;51.950;8.572;2023-09-30T04:23:36;424.10;;;182.57;;
7440;SDS011;29616;51.950;8.572;2023-09-30T04:26:07;434.98;;;186.35;;
7440;SDS011;29616;51.950;8.572;2023-09-30T04:28:36;426.95;;;187.35;;
7440;SDS011;29616;51.950;8.572;2023-09-30T04:31:07;439.15;;;188.40;;
7440;SDS011;29616;51.950;8.572;2023-09-30T04:33:37;436.95;;;186.00;;
7440;SDS011;29616;51.950;8.572;2023-09-30T04:36:08;451.10;;;192.88;;
7440;SDS011;29616;51.950;8.572;2023-09-30T04:38:39;483.10;;;208.27;;
7440;SDS011;29616;51.950;8.572;2023-09-30T04:41:10;479.02;;;210.15;;
7440;SDS011;29616;51.950;8.572;2023-09-30T04:43:41;431.23;;;186.02;;
7440;SDS011;29616;51.950;8.572;2023-09-30T04:46:13;391.05;;;170.55;;
7440;SDS011;29616;51.950;8.572;2023-09-30T04:48:48;382.95;;;163.43;;
7440;SDS011;29616;51.950;8.572;2023-09-30T04:51:19;366.83;;;162.13;;
7440;SDS011;29616;51.950;8.572;2023-09-30T04:53:52;376.02;;;165.25;;
7440;SDS011;29616;51.950;8.572;2023-09-30T04:56:23;384.58;;;171.45;;
7440;SDS011;29616;51.950;8.572;2023-09-30T04:58:54;375.40;;;161.82;;
7440;SDS011;29616;51.950;8.572;2023-09-30T05:01:26;373.85;;;160.27;;
7440;SDS011;29616;51.950;8.572;2023-09-30T05:03:58;363.20;;;157.05;;
7440;SDS011;29616;51.950;8.572;2023-09-30T05:06:29;358.95;;;154.77;;
7440;SDS011;29616;51.950;8.572;2023-09-30T05:09:02;353.73;;;152.55;;
7440;SDS011;29616;51.950;8.572;2023-09-30T05:11:32;353.33;;;151.63;;
7440;SDS011;29616;51.950;8.572;2023-09-30T05:14:04;353.65;;;150.20;;
7440;SDS011;29616;51.950;8.572;2023-09-30T05:16:33;351.23;;;149.25;;
7440;SDS011;29616;51.950;8.572;2023-09-30T05:19:03;355.77;;;149.95;;
7440;SDS011;29616;51.950;8.572;2023-09-30T05:21:34;383.20;;;149.57;;
7440;SDS011;29616;51.950;8.572;2023-09-30T05:24:07;411.40;;;155.18;;
7440;SDS011;29616;51.950;8.572;2023-09-30T05:26:38;422.00;;;156.48;;
7440;SDS011;29616;51.950;8.572;2023-09-30T05:29:12;389.13;;;152.90;;
7440;SDS011;29616;51.950;8.572;2023-09-30T05:31:43;401.92;;;151.13;;
7440;SDS011;29616;51.950;8.572;2023-09-30T05:34:13;424.05;;;152.45;;
7440;SDS011;29616;51.950;8.572;2023-09-30T05:36:41;390.70;;;149.63;;
7440;SDS011;29616;51.950;8.572;2023-09-30T05:39:15;421.35;;;157.30;;
7440;SDS011;29616;51.950;8.572;2023-09-30T05:41:47;408.23;;;152.32;;
7440;SDS011;29616;51.950;8.572;2023-09-30T05:44:18;439.88;;;155.38;;
7440;SDS011;29616;51.950;8.572;2023-09-30T05:46:49;422.55;;;152.93;;
7440;SDS011;29616;51.950;8.572;2023-09-30T05:49:21;418.75;;;156.60;;
7440;SDS011;29616;51.950;8.572;2023-09-30T05:51:51;409.20;;;150.93;;
7440;SDS011;29616;51.950;8.572;2023-09-30T05:54:23;387.65;;;148.07;;
7440;SDS011;29616;51.950;8.572;2023-09-30T05:56:53;377.88;;;148.07;;
7440;SDS011;29616;51.950;8.572;2023-09-30T05:59:25;382.17;;;151.55;;
7440;SDS011;29616;51.950;8.572;2023-09-30T06:01:56;383.88;;;149.82;;
7440;SDS011;29616;51.950;8.572;2023-09-30T06:04:25;368.25;;;147.88;;
7440;SDS011;29616;51.950;8.572;2023-09-30T06:06:56;386.95;;;146.80;;
7440;SDS011;29616;51.950;8.572;2023-09-30T06:09:28;386.00;;;152.05;;
7440;SDS011;29616;51.950;8.572;2023-09-30T06:11:57;383.90;;;146.18;;
7440;SDS011;29616;51.950;8.572;2023-09-30T06:14:28;421.23;;;148.43;;
7440;SDS011;29616;51.950;8.572;2023-09-30T06:16:58;396.50;;;151.45;;
7440;SDS011;29616;51.950;8.572;2023-09-30T06:19:28;362.30;;;145.43;;
7440;SDS011;29616;51.950;8.572;2023-09-30T06:21:58;384.45;;;143.30;;
7440;SDS011;29616;51.950;8.572;2023-09-30T06:24:32;385.67;;;149.85;;
7440;SDS011;29616;51.950;8.572;2023-09-30T06:27:02;440.17;;;147.30;;
7440;SDS011;29616;51.950;8.572;2023-09-30T06:29:31;431.05;;;151.48;;
7440;SDS011;29616;51.950;8.572;2023-09-30T06:32:02;452.40;;;156.52;;
7440;SDS011;29616;51.950;8.572;2023-09-30T06:34:32;461.67;;;150.57;;
7440;SDS011;29616;51.950;8.572;2023-09-30T06:37:03;462.95;;;157.45;;
7440;SDS011;29616;51.950;8.572;2023-09-30T06:39:36;436.35;;;154.30;;
7440;SDS011;29616;51.950;8.572;2023-09-30T06:42:06;462.33;;;152.23;;
7440;SDS011;29616;51.950;8.572;2023-09-30T06:44:36;492.88;;;152.45;;
7440;SDS011;29616;51.950;8.572;2023-09-30T06:47:08;444.55;;;155.48;;
7440;SDS011;29616;51.950;8.572;2023-09-30T06:49:40;493.70;;;159.27;;
7440;SDS011;29616;51.950;8.572;2023-09-30T06:52:08;485.92;;;153.48;;
7440;SDS011;29616;51.950;8.572;2023-09-30T06:54:41;434.23;;;154.93;;
7440;SDS011;29616;51.950;8.572;2023-09-30T06:57:12;443.75;;;155.05;;
7440;SDS011;29616;51.950;8.572;2023-09-30T06:59:45;419.77;;;154.10;;
7440;SDS011;29616;51.950;8.572;2023-09-30T07:02:16;473.40;;;169.50;;
7440;SDS011;29616;51.950;8.572;2023-09-30T07:04:48;466.08;;;174.27;;
7440;SDS011;29616;51.950;8.572;2023-09-30T07:07:18;449.33;;;175.27;;
7440;SDS011;29616;51.950;8.572;2023-09-30T07:09:50;393.35;;;151.05;;
7440;SDS011;29616;51.950;8.572;2023-09-30T07:12:20;457.17;;;176.63;;
7440;SDS011;29616;51.950;8.572;2023-09-30T07:14:51;444.25;;;164.40;;
7440;SDS011;29616;51.950;8.572;2023-09-30T07:17:21;460.88;;;175.52;;
7440;SDS011;29616;51.950;8.572;2023-09-30T07:19:51;418.10;;;170.95;;
7440;SDS011;29616;51.950;8.572;2023-09-30T07:22:24;459.88;;;186.75;;
7440;SDS011;29616;51.950;8.572;2023-09-30T07:25:17;428.75;;;174.32;;
7440;SDS011;29616;51.950;8.572;2023-09-30T07:27:49;348.17;;;147.68;;
7440;SDS011;29616;51.950;8.572;2023-09-30T07:30:20;480.60;;;198.15;;
7440;SDS011;29616;51.950;8.572;2023-09-30T07:32:51;380.40;;;155.07;;
7440;SDS011;29616;51.950;8.572;2023-09-30T07:35:21;400.50;;;161.48;;
7440;SDS011;29616;51.950;8.572;2023-09-30T07:37:54;401.88;;;161.65;;
7440;SDS011;29616;51.950;8.572;2023-09-30T07:40:26;605.47;;;242.63;;
7440;SDS011;29616;51.950;8.572;2023-09-30T07:42:56;497.02;;;203.63;;
7440;SDS011;29616;51.950;8.572;2023-09-30T07:48:29;602.40;;;241.30;;
7440;SDS011;29616;51.950;8.572;2023-09-30T07:51:00;500.80;;;197.60;;
7440;SDS011;29616;51.950;8.572;2023-09-30T07:53:32;452.48;;;177.15;;
7440;SDS011;29616;51.950;8.572;2023-09-30T07:56:04;433.70;;;169.95;;
7440;SDS011;29616;51.950;8.572;2023-09-30T07:58:34;432.17;;;167.13;;
7440;SDS011;29616;51.950;8.572;2023-09-30T08:01:02;397.92;;;155.38;;
7440;SDS011;29616;51.950;8.572;2023-09-30T08:03:31;460.85;;;178.35;;
7440;SDS011;29616;51.950;8.572;2023-09-30T08:06:03;443.20;;;173.07;;
7440;SDS011;29616;51.950;8.572;2023-09-30T08:08:36;458.15;;;179.40;;
7440;SDS011;29616;51.950;8.572;2023-09-30T08:11:10;474.00;;;183.35;;
7440;SDS011;29616;51.950;8.572;2023-09-30T08:13:40;501.50;;;194.40;;
7440;SDS011;29616;51.950;8.572;2023-09-30T08:16:10;472.70;;;186.18;;
7440;SDS011;29616;51.950;8.572;2023-09-30T08:18:42;491.70;;;191.85;;
7440;SDS011;29616;51.950;8.572;2023-09-30T08:21:14;516.28;;;199.52;;
7440;SDS011;29616;51.950;8.572;2023-09-30T08:23:44;625.45;;;239.43;;
7440;SDS011;29616;51.950;8.572;2023-09-30T08:26:15;809.97;;;296.77;;
7440;SDS011;29616;51.950;8.572;2023-09-30T08:28:47;912.67;;;327.55;;
7440;SDS011;29616;51.950;8.572;2023-09-30T08:31:18;928.97;;;330.70;;
7440;SDS011;29616;51.950;8.572;2023-09-30T08:33:50;1049.90;;;366.77;;
7440;SDS011;29616;51.950;8.572;2023-09-30T08:36:20;1182.18;;;423.63;;
7440;SDS011;29616;51.950;8.572;2023-09-30T08:38:53;1218.70;;;441.58;;
7440;SDS011;29616;51.950;8.572;2023-09-30T08:41:28;1180.43;;;426.38;;
7440;SDS011;29616;51.950;8.572;2023-09-30T08:44:00;1185.85;;;431.17;;
7440;SDS011;29616;51.950;8.572;2023-09-30T08:46:33;1119.32;;;399.50;;
7440;SDS011;29616;51.950;8.572;2023-09-30T08:49:04;1145.55;;;409.73;;
7440;SDS011;29616;51.950;8.572;2023-09-30T08:51:38;1220.15;;;442.77;;
7440;SDS011;29616;51.950;8.572;2023-09-30T08:54:08;1298.03;;;472.55;;
7440;SDS011;29616;51.950;8.572;2023-09-30T08:56:43;1377.03;;;506.33;;
7440;SDS011;29616;51.950;8.572;2023-09-30T08:59:17;1565.95;;;589.17;;
7440;SDS011;29616;51.950;8.572;2023-09-30T09:01:51;1582.95;;;596.47;;
7440;SDS011;29616;51.950;8.572;2023-09-30T09:04:25;1579.72;;;588.47;;
7440;SDS011;29616;51.950;8.572;2023-09-30T09:06:55;1577.68;;;604.35;;
7440;SDS011;29616;51.950;8.572;2023-09-30T09:09:25;1628.68;;;613.35;;
7440;SDS011;29616;51.950;8.572;2023-09-30T09:12:00;1706.53;;;651.90;;
7440;SDS011;29616;51.950;8.572;2023-09-30T09:14:37;1636.78;;;619.05;;
7440;SDS011;29616;51.950;8.572;2023-09-30T09:17:10;1646.25;;;611.70;;
7440;SDS011;29616;51.950;8.572;2023-09-30T09:19:43;1748.10;;;652.85;;
7440;SDS011;29616;51.950;8.572;2023-09-30T09:22:37;1476.93;;;556.08;;
7440;SDS011;29616;51.950;8.572;2023-09-30T09:25:08;1326.63;;;477.08;;
7440;SDS011;29616;51.950;8.572;2023-09-30T09:27:40;1275.13;;;448.05;;
7440;SDS011;29616;51.950;8.572;2023-09-30T09:30:16;1165.95;;;402.77;;
7440;SDS011;29616;51.950;8.572;2023-09-30T09:32:52;1259.72;;;435.90;;
7440;SDS011;29616;51.950;8.572;2023-09-30T09:38:01;1213.28;;;422.95;;
7440;SDS011;29616;51.950;8.572;2023-09-30T09:40:35;1102.22;;;376.35;;
7440;SDS011;29616;51.950;8.572;2023-09-30T09:43:11;1142.05;;;395.63;;
7440;SDS011;29616;51.950;8.572;2023-09-30T09:45:41;1098.53;;;382.88;;
7440;SDS011;29616;51.950;8.572;2023-09-30T09:48:16;1153.00;;;406.50;;
7440;SDS011;29616;51.950;8.572;2023-09-30T09:50:47;1161.43;;;411.35;;
7440;SDS011;29616;51.950;8.572;2023-09-30T09:53:19;1158.85;;;406.27;;
7440;SDS011;29616;51.950;8.572;2023-09-30T09:55:52;1116.18;;;389.95;;
7440;SDS011;29616;51.950;8.572;2023-09-30T09:58:25;1082.82;;;377.63;;
7440;SDS011;29616;51.950;8.572;2023-09-30T10:01:01;1117.30;;;393.13;;
7440;SDS011;29616;51.950;8.572;2023-09-30T10:03:34;1129.50;;;396.83;;
7440;SDS011;29616;51.950;8.572;2023-09-30T10:06:04;1094.22;;;382.98;;
7440;SDS011;29616;51.950;8.572;2023-09-30T10:08:37;1160.13;;;411.27;;
7440;SDS011;29616;51.950;8.572;2023-09-30T10:11:16;1146.68;;;404.30;;
7440;SDS011;29616;51.950;8.572;2023-09-30T10:13:52;1049.88;;;371.98;;
7440;SDS011;29616;51.950;8.572;2023-09-30T10:19:19;1056.60;;;376.77;;
7440;SDS011;29616;51.950;8.572;2023-09-30T10:24:53;1066.15;;;373.55;;
7440;SDS011;29616;51.950;8.572;2023-09-30T10:27:34;1006.30;;;357.38;;
7440;SDS011;29616;51.950;8.572;2023-09-30T10:30:13;990.10;;;352.80;;
7440;SDS011;29616;51.950;8.572;2023-09-30T10:35:42;969.05;;;344.58;;
7440;SDS011;29616;51.950;8.572;2023-09-30T10:41:09;981.65;;;348.88;;
7440;SDS011;29616;51.950;8.572;2023-09-30T10:43:59;996.42;;;357.95;;
7440;SDS011;29616;51.950;8.572;2023-09-30T10:53:23;950.60;;;349.05;;
7440;SDS011;29616;51.950;8.572;2023-09-30T10:55:55;1018.20;;;374.23;;
7440;SDS011;29616;51.950;8.572;2023-09-30T10:58:38;932.78;;;343.05;;
7440;SDS011;29616;51.950;8.572;2023-09-30T11:01:14;920.60;;;338.83;;
7440;SDS011;29616;51.950;8.572;2023-09-30T11:03:50;910.47;;;339.42;;
7440;SDS011;29616;51.950;8.572;2023-09-30T11:06:35;898.33;;;336.98;;
7440;SDS011;29616;51.950;8.572;2023-09-30T11:09:15;947.85;;;346.88;;
7440;SDS011;29616;51.950;8.572;2023-09-30T11:11:49;975.17;;;353.55;;
7440;SDS011;29616;51.950;8.572;2023-09-30T11:14:24;996.58;;;364.65;;
7440;SDS011;29616;51.950;8.572;2023-09-30T11:17:00;1024.22;;;372.33;;
7440;SDS011;29616;51.950;8.572;2023-09-30T11:19:35;994.25;;;359.45;;
7440;SDS011;29616;51.950;8.572;2023-09-30T11:22:16;1097.45;;;394.23;;
7440;SDS011;29616;51.950;8.572;2023-09-30T11:24:47;1102.93;;;388.98;;
7440;SDS011;29616;51.950;8.572;2023-09-30T11:27:23;1205.68;;;432.27;;
7440;SDS011;29616;51.950;8.572;2023-09-30T11:29:55;1160.07;;;406.55;;
7440;SDS011;29616;51.950;8.572;2023-09-30T11:32:27;1136.47;;;381.73;;
7440;SDS011;29616;51.950;8.572;2023-09-30T11:34:59;1217.82;;;417.80;;
7440;SDS011;29616;51.950;8.572;2023-09-30T11:37:32;1073.18;;;362.73;;
7440;SDS011;29616;51.950;8.572;2023-09-30T11:40:10;1042.40;;;353.60;;
7440;SDS011;29616;51.950;8.572;2023-09-30T11:42:42;1012.63;;;350.55;;
7440;SDS011;29616;51.950;8.572;2023-09-30T11:46:03;967.95;;;340.58;;
7440;SDS011;29616;51.950;8.572;2023-09-30T11:48:36;957.67;;;339.20;;
7440;SDS011;29616;51.950;8.572;2023-09-30T11:51:13;1016.00;;;360.13;;
7440;SDS011;29616;51.950;8.572;2023-09-30T11:53:43;981.55;;;350.90;;
7440;SDS011;29616;51.950;8.572;2023-09-30T11:56:16;976.78;;;351.35;;
7440;SDS011;29616;51.950;8.572;2023-09-30T11:58:47;1005.55;;;362.95;;
7440;SDS011;29616;51.950;8.572;2023-09-30T12:01:18;975.05;;;353.40;;
7440;SDS011;29616;51.950;8.572;2023-09-30T12:03:49;969.33;;;352.38;;
7440;SDS011;29616;51.950;8.572;2023-09-30T12:06:26;903.00;;;334.50;;
7440;SDS011;29616;51.950;8.572;2023-09-30T12:08:55;880.80;;;322.00;;
7440;SDS011;29616;51.950;8.572;2023-09-30T12:11:26;982.42;;;351.02;;
7440;SDS011;29616;51.950;8.572;2023-09-30T12:13:58;777.95;;;281.38;;
7440;SDS011;29616;51.950;8.572;2023-09-30T12:16:28;1078.13;;;372.23;;
7440;SDS011;29616;51.950;8.572;2023-09-30T12:18:59;1069.05;;;369.90;;
7440;SDS011;29616;51.950;8.572;2023-09-30T12:21:32;1005.92;;;354.08;;
7440;SDS011;29616;51.950;8.572;2023-09-30T12:24:03;893.08;;;315.60;;
7440;SDS011;29616;51.950;8.572;2023-09-30T12:26:33;1050.40;;;365.70;;
7440;SDS011;29616;51.950;8.572;2023-09-30T12:29:03;1030.50;;;358.80;;
7440;SDS011;29616;51.950;8.572;2023-09-30T12:31:35;1087.82;;;371.70;;
7440;SDS011;29616;51.950;8.572;2023-09-30T12:34:18;1047.15;;;355.80;;
7440;SDS011;29616;51.950;8.572;2023-09-30T12:36:52;1032.35;;;349.73;;
7440;SDS011;29616;51.950;8.572;2023-09-30T12:39:23;1223.75;;;417.08;;
7440;SDS011;29616;51.950;8.572;2023-09-30T12:41:55;1211.97;;;411.10;;
7440;SDS011;29616;51.950;8.572;2023-09-30T12:44:25;1172.35;;;390.00;;
7440;SDS011;29616;51.950;8.572;2023-09-30T12:46:55;1094.00;;;366.23;;
7440;SDS011;29616;51.950;8.572;2023-09-30T12:49:26;1145.40;;;382.25;;
7440;SDS011;29616;51.950;8.572;2023-09-30T12:51:57;1195.90;;;399.50;;
7440;SDS011;29616;51.950;8.572;2023-09-30T12:57:02;1245.25;;;428.23;;
7440;SDS011;29616;51.950;8.572;2023-09-30T12:59:36;1231.85;;;413.50;;
7440;SDS011;29616;51.950;8.572;2023-09-30T13:02:08;1232.63;;;408.65;;
7440;SDS011;29616;51.950;8.572;2023-09-30T13:04:38;1320.97;;;444.35;;
7440;SDS011;29616;51.950;8.572;2023-09-30T13:07:12;1230.60;;;413.58;;
7440;SDS011;29616;51.950;8.572;2023-09-30T13:09:43;1186.40;;;392.38;;
7440;SDS011;29616;51.950;8.572;2023-09-30T13:12:14;1231.18;;;414.88;;
7440;SDS011;29616;51.950;8.572;2023-09-30T13:14:45;1132.28;;;371.88;;
7440;SDS011;29616;51.950;8.572;2023-09-30T13:17:16;1131.40;;;375.20;;
7440;SDS011;29616;51.950;8.572;2023-09-30T13:19:46;1194.20;;;398.48;;
7440;SDS011;29616;51.950;8.572;2023-09-30T13:22:22;1239.30;;;408.63;;
7440;SDS011;29616;51.950;8.572;2023-09-30T13:24:51;1113.70;;;368.75;;
7440;SDS011;29616;51.950;8.572;2023-09-30T13:27:22;1079.82;;;360.52;;
7440;SDS011;29616;51.950;8.572;2023-09-30T13:29:53;1077.25;;;360.75;;
7440;SDS011;29616;51.950;8.572;2023-09-30T13:32:24;1067.03;;;361.13;;
7440;SDS011;29616;51.950;8.572;2023-09-30T13:34:54;1180.82;;;393.50;;
7440;SDS011;29616;51.950;8.572;2023-09-30T13:37:28;1038.15;;;352.95;;
7440;SDS011;29616;51.950;8.572;2023-09-30T13:40:01;1010.25;;;346.65;;
7440;SDS011;29616;51.950;8.572;2023-09-30T13:42:35;971.53;;;336.80;;
7440;SDS011;29616;51.950;8.572;2023-09-30T13:45:05;839.03;;;292.55;;
7440;SDS011;29616;51.950;8.572;2023-09-30T13:47:37;966.97;;;334.85;;
7440;SDS011;29616;51.950;8.572;2023-09-30T13:50:09;1003.72;;;346.75;;
7440;SDS011;29616;51.950;8.572;2023-09-30T13:52:42;1024.93;;;352.92;;
7440;SDS011;29616;51.950;8.572;2023-09-30T13:55:12;1046.47;;;358.70;;
7440;SDS011;29616;51.950;8.572;2023-09-30T13:57:46;1057.30;;;361.25;;
7440;SDS011;29616;51.950;8.572;2023-09-30T14:00:18;992.20;;;344.38;;
7440;SDS011;29616;51.950;8.572;2023-09-30T14:02:48;1017.97;;;348.95;;
7440;SDS011;29616;51.950;8.572;2023-09-30T14:05:20;996.30;;;342.65;;
7440;SDS011;29616;51.950;8.572;2023-09-30T14:07:54;1008.33;;;345.23;;
7440;SDS011;29616;51.950;8.572;2023-09-30T14:10:24;1004.10;;;344.52;;
7440;SDS011;29616;51.950;8.572;2023-09-30T14:12:54;996.88;;;339.10;;
7440;SDS011;29616;51.950;8.572;2023-09-30T14:15:24;1013.75;;;345.08;;
7440;SDS011;29616;51.950;8.572;2023-09-30T14:17:56;1058.75;;;356.38;;
7440;SDS011;29616;51.950;8.572;2023-09-30T14:20:25;1099.60;;;364.88;;
7440;SDS011;29616;51.950;8.572;2023-09-30T14:22:57;1049.30;;;354.33;;
7440;SDS011;29616;51.950;8.572;2023-09-30T14:25:28;1062.82;;;359.77;;
7440;SDS011;29616;51.950;8.572;2023-09-30T14:27:59;1053.85;;;357.55;;
7440;SDS011;29616;51.950;8.572;2023-09-30T14:30:30;1052.13;;;353.67;;
7440;SDS011;29616;51.950;8.572;2023-09-30T14:33:01;1019.15;;;352.00;;
7440;SDS011;29616;51.950;8.572;2023-09-30T14:35:32;999.20;;;343.77;;
7440;SDS011;29616;51.950;8.572;2023-09-30T14:38:06;1005.17;;;346.30;;
7440;SDS011;29616;51.950;8.572;2023-09-30T14:40:39;933.63;;;325.48;;
7440;SDS011;29616;51.950;8.572;2023-09-30T14:43:09;894.95;;;314.58;;
7440;SDS011;29616;51.950;8.572;2023-09-30T14:45:40;937.40;;;326.98;;
7440;SDS011;29616;51.950;8.572;2023-09-30T14:48:09;905.63;;;316.90;;
7440;SDS011;29616;51.950;8.572;2023-09-30T14:50:48;909.65;;;316.90;;
7440;SDS011;29616;51.950;8.572;2023-09-30T14:53:20;1001.58;;;344.50;;
7440;SDS011;29616;51.950;8.572;2023-09-30T14:55:50;922.03;;;322.70;;
7440;SDS011;29616;51.950;8.572;2023-09-30T14:58:20;975.08;;;339.20;;
7440;SDS011;29616;51.950;8.572;2023-09-30T15:00:52;997.90;;;344.55;;